sensor_id;sensor_type;location;lat;lon;timestamp;pressure;altitude;pressure_sealevel;temperature;humidity
54870;BME280;40756;-37.950;145.008;2022-12-07T00:01:55;100218.28;;;17.92;44.34
54870;BME280;40756;-37.950;145.008;2022-12-07T00:04:24;100219.97;;;18.62;43.58
54870;BME280;40756;-37.950;145.008;2022-12-07T00:06:54;100213.28;;;19.53;42.39
54870;BME280;40756;-37.950;145.008;2022-12-07T00:09:23;100212.80;;;19.21;41.89
54870;BME280;40756;-37.950;145.008;2022-12-07T00:11:53;100212.36;;;18.75;42.74
54870;BME280;40756;-37.950;145.008;2022-12-07T00:14:22;100218.96;;;17.84;43.10
54870;BME280;40756;-37.950;145.008;2022-12-07T00:16:53;100213.29;;;18.67;43.16
54870;BME280;40756;-37.950;145.008;2022-12-07T00:19:23;100217.03;;;19.20;43.54
54870;BME280;40756;-37.950;145.008;2022-12-07T00:21:52;100213.30;;;19.44;42.49
54870;BME280;40756;-37.950;145.008;2022-12-07T00:24:22;100224.52;;;19.35;42.34
54870;BME280;40756;-37.950;145.008;2022-12-07T00:26:52;100224.31;;;18.84;43.24
54870;BME280;40756;-37.950;145.008;2022-12-07T00:29:22;100230.97;;;18.84;43.32
54870;BME280;40756;-37.950;145.008;2022-12-07T00:31:52;100234.64;;;18.92;42.31
54870;BME280;40756;-37.950;145.008;2022-12-07T00:34:22;100238.26;;;19.11;42.33
54870;BME280;40756;-37.950;145.008;2022-12-07T00:36:51;100240.80;;;18.78;42.96
54870;BME280;40756;-37.950;145.008;2022-12-07T00:39:21;100239.87;;;19.82;42.16
54870;BME280;40756;-37.950;145.008;2022-12-07T00:41:50;100244.87;;;19.24;41.58
54870;BME280;40756;-37.950;145.008;2022-12-07T00:44:20;100239.94;;;19.03;41.96
54870;BME280;40756;-37.950;145.008;2022-12-07T00:46:49;100237.35;;;19.10;42.54
54870;BME280;40756;-37.950;145.008;2022-12-07T00:49:19;100238.20;;;19.01;42.11
54870;BME280;40756;-37.950;145.008;2022-12-07T00:51:49;100238.34;;;18.86;42.74
54870;BME280;40756;-37.950;145.008;2022-12-07T00:54:19;100244.46;;;19.88;41.07
54870;BME280;40756;-37.950;145.008;2022-12-07T00:56:48;100251.46;;;19.88;40.34
54870;BME280;40756;-37.950;145.008;2022-12-07T00:59:18;100250.99;;;19.31;40.36
54870;BME280;40756;-37.950;145.008;2022-12-07T01:01:47;100253.14;;;19.62;40.40
54870;BME280;40756;-37.950;145.008;2022-12-07T01:04:17;100251.73;;;18.97;41.29
54870;BME280;40756;-37.950;145.008;2022-12-07T01:06:47;100253.62;;;19.82;41.37
54870;BME280;40756;-37.950;145.008;2022-12-07T01:09:16;100253.71;;;19.85;41.28
54870;BME280;40756;-37.950;145.008;2022-12-07T01:11:52;100246.20;;;20.28;40.92
54870;BME280;40756;-37.950;145.008;2022-12-07T01:14:21;100242.61;;;20.39;40.14
54870;BME280;40756;-37.950;145.008;2022-12-07T01:16:51;100246.36;;;19.99;39.91
54870;BME280;40756;-37.950;145.008;2022-12-07T01:19:21;100243.36;;;20.04;40.00
54870;BME280;40756;-37.950;145.008;2022-12-07T01:21:51;100240.09;;;19.38;41.07
54870;BME280;40756;-37.950;145.008;2022-12-07T01:24:21;100239.88;;;19.97;41.44
54870;BME280;40756;-37.950;145.008;2022-12-07T01:26:51;100232.87;;;19.94;40.80
54870;BME280;40756;-37.950;145.008;2022-12-07T01:29:20;100230.52;;;19.14;40.46
54870;BME280;40756;-37.950;145.008;2022-12-07T01:31:50;100229.07;;;19.66;40.92
54870;BME280;40756;-37.950;145.008;2022-12-07T01:34:20;100221.76;;;20.03;39.65
54870;BME280;40756;-37.950;145.008;2022-12-07T01:36:49;100219.93;;;20.27;39.60
54870;BME280;40756;-37.950;145.008;2022-12-07T01:39:19;100211.68;;;20.53;39.12
54870;BME280;40756;-37.950;145.008;2022-12-07T01:41:48;100214.94;;;19.75;39.55
54870;BME280;40756;-37.950;145.008;2022-12-07T01:44:21;100213.75;;;20.40;39.00
54870;BME280;40756;-37.950;145.008;2022-12-07T01:46:52;100211.80;;;20.70;37.79
54870;BME280;40756;-37.950;145.008;2022-12-07T01:49:28;100220.49;;;20.65;38.02
54870;BME280;40756;-37.950;145.008;2022-12-07T01:52:03;100218.55;;;20.92;38.07
54870;BME280;40756;-37.950;145.008;2022-12-07T01:54:37;100220.65;;;20.65;37.49
54870;BME280;40756;-37.950;145.008;2022-12-07T01:57:07;100211.72;;;21.17;36.77
54870;BME280;40756;-37.950;145.008;2022-12-07T01:59:37;100216.88;;;21.04;37.06
54870;BME280;40756;-37.950;145.008;2022-12-07T02:02:12;100224.05;;;20.28;37.90
54870;BME280;40756;-37.950;145.008;2022-12-07T02:04:43;100221.94;;;21.26;38.12
54870;BME280;40756;-37.950;145.008;2022-12-07T02:07:14;100219.73;;;21.34;36.27
54870;BME280;40756;-37.950;145.008;2022-12-07T02:09:45;100227.31;;;21.96;36.44
54870;BME280;40756;-37.950;145.008;2022-12-07T02:12:14;100220.62;;;21.79;36.41
54870;BME280;40756;-37.950;145.008;2022-12-07T02:14:43;100225.22;;;20.83;37.13
54870;BME280;40756;-37.950;145.008;2022-12-07T02:17:19;100230.08;;;21.48;36.52
54870;BME280;40756;-37.950;145.008;2022-12-07T02:20:09;100240.81;;;20.61;37.52
54870;BME280;40756;-37.950;145.008;2022-12-07T02:23:04;100237.00;;;21.46;36.98
54870;BME280;40756;-37.950;145.008;2022-12-07T02:26:00;100234.52;;;21.82;36.83
54870;BME280;40756;-37.950;145.008;2022-12-07T02:28:37;100226.96;;;21.50;36.27
54870;BME280;40756;-37.950;145.008;2022-12-07T02:31:13;100222.01;;;21.63;36.18
54870;BME280;40756;-37.950;145.008;2022-12-07T02:33:49;100211.50;;;21.36;36.95
54870;BME280;40756;-37.950;145.008;2022-12-07T02:36:25;100214.69;;;21.74;36.18
54870;BME280;40756;-37.950;145.008;2022-12-07T02:39:00;100219.69;;;21.49;35.69
54870;BME280;40756;-37.950;145.008;2022-12-07T02:41:36;100207.36;;;21.74;36.23
54870;BME280;40756;-37.950;145.008;2022-12-07T02:44:09;100214.56;;;21.30;36.67
54870;BME280;40756;-37.950;145.008;2022-12-07T02:46:43;100215.03;;;21.26;36.77
54870;BME280;40756;-37.950;145.008;2022-12-07T02:49:13;100221.95;;;20.25;37.24
54870;BME280;40756;-37.950;145.008;2022-12-07T02:51:45;100219.28;;;20.71;37.16
54870;BME280;40756;-37.950;145.008;2022-12-07T02:54:17;100215.69;;;20.99;37.09
54870;BME280;40756;-37.950;145.008;2022-12-07T02:56:49;100221.58;;;21.43;37.09
54870;BME280;40756;-37.950;145.008;2022-12-07T02:59:30;100216.44;;;21.24;37.42
54870;BME280;40756;-37.950;145.008;2022-12-07T03:02:13;100214.67;;;21.21;37.49
54870;BME280;40756;-37.950;145.008;2022-12-07T03:04:52;100219.71;;;21.64;37.07
54870;BME280;40756;-37.950;145.008;2022-12-07T03:07:33;100212.77;;;21.54;37.35
54870;BME280;40756;-37.950;145.008;2022-12-07T03:10:18;100213.15;;;20.81;37.48
54870;BME280;40756;-37.950;145.008;2022-12-07T03:12:57;100209.65;;;21.60;36.85
54870;BME280;40756;-37.950;145.008;2022-12-07T03:15:35;100218.40;;;20.99;37.11
54870;BME280;40756;-37.950;145.008;2022-12-07T03:18:08;100208.52;;;20.60;37.86
54870;BME280;40756;-37.950;145.008;2022-12-07T03:20:42;100204.32;;;20.50;37.83
54870;BME280;40756;-37.950;145.008;2022-12-07T03:23:16;100202.32;;;20.00;38.81
54870;BME280;40756;-37.950;145.008;2022-12-07T03:25:49;100196.40;;;20.36;39.14
54870;BME280;40756;-37.950;145.008;2022-12-07T03:28:24;100200.58;;;19.83;38.77
54870;BME280;40756;-37.950;145.008;2022-12-07T03:30:59;100202.62;;;20.13;38.88
54870;BME280;40756;-37.950;145.008;2022-12-07T03:33:35;100200.18;;;20.54;38.14
54870;BME280;40756;-37.950;145.008;2022-12-07T03:36:14;100205.69;;;20.57;37.72
54870;BME280;40756;-37.950;145.008;2022-12-07T03:38:50;100208.50;;;20.74;37.66
54870;BME280;40756;-37.950;145.008;2022-12-07T03:41:25;100210.27;;;20.79;36.99
54870;BME280;40756;-37.950;145.008;2022-12-07T03:43:56;100214.50;;;19.72;38.03
54870;BME280;40756;-37.950;145.008;2022-12-07T03:46:35;100215.86;;;19.64;38.68
54870;BME280;40756;-37.950;145.008;2022-12-07T03:49:13;100213.94;;;20.29;38.14
54870;BME280;40756;-37.950;145.008;2022-12-07T03:51:49;100198.90;;;20.98;37.06
54870;BME280;40756;-37.950;145.008;2022-12-07T03:54:24;100199.13;;;21.00;36.17
54870;BME280;40756;-37.950;145.008;2022-12-07T03:56:58;100213.09;;;19.90;37.27
54870;BME280;40756;-37.950;145.008;2022-12-07T03:59:30;100215.93;;;19.83;37.88
54870;BME280;40756;-37.950;145.008;2022-12-07T04:02:06;100219.01;;;20.41;37.31
54870;BME280;40756;-37.950;145.008;2022-12-07T04:04:36;100221.01;;;20.23;36.87
54870;BME280;40756;-37.950;145.008;2022-12-07T04:07:05;100221.53;;;20.05;37.51
54870;BME280;40756;-37.950;145.008;2022-12-07T04:09:35;100223.46;;;19.90;37.04
54870;BME280;40756;-37.950;145.008;2022-12-07T04:12:05;100220.29;;;19.53;38.14
54870;BME280;40756;-37.950;145.008;2022-12-07T04:14:34;100225.50;;;19.60;37.98
54870;BME280;40756;-37.950;145.008;2022-12-07T04:17:03;100231.67;;;19.71;38.48
54870;BME280;40756;-37.950;145.008;2022-12-07T04:19:34;100233.75;;;19.28;37.93
54870;BME280;40756;-37.950;145.008;2022-12-07T04:22:05;100236.35;;;19.40;37.77
54870;BME280;40756;-37.950;145.008;2022-12-07T04:24:36;100233.64;;;19.18;37.22
54870;BME280;40756;-37.950;145.008;2022-12-07T04:27:06;100231.85;;;19.93;35.88
54870;BME280;40756;-37.950;145.008;2022-12-07T04:29:36;100225.45;;;20.20;35.23
54870;BME280;40756;-37.950;145.008;2022-12-07T04:32:06;100221.22;;;20.35;34.77
54870;BME280;40756;-37.950;145.008;2022-12-07T04:34:35;100221.89;;;20.96;34.19
54870;BME280;40756;-37.950;145.008;2022-12-07T04:37:04;100223.88;;;21.26;32.91
54870;BME280;40756;-37.950;145.008;2022-12-07T04:39:35;100227.50;;;20.52;33.05
54870;BME280;40756;-37.950;145.008;2022-12-07T04:42:05;100228.29;;;20.28;34.28
54870;BME280;40756;-37.950;145.008;2022-12-07T04:44:35;100220.65;;;20.65;33.59
54870;BME280;40756;-37.950;145.008;2022-12-07T04:47:04;100221.93;;;21.02;34.31
54870;BME280;40756;-37.950;145.008;2022-12-07T04:49:34;100222.31;;;21.13;34.26
54870;BME280;40756;-37.950;145.008;2022-12-07T04:52:03;100217.02;;;20.29;34.87
54870;BME280;40756;-37.950;145.008;2022-12-07T04:54:32;100220.42;;;20.64;34.00
54870;BME280;40756;-37.950;145.008;2022-12-07T04:57:02;100223.72;;;21.29;33.84
54870;BME280;40756;-37.950;145.008;2022-12-07T04:59:31;100222.68;;;20.60;34.05
54870;BME280;40756;-37.950;145.008;2022-12-07T05:02:01;100224.73;;;20.50;33.70
54870;BME280;40756;-37.950;145.008;2022-12-07T05:04:31;100216.42;;;21.22;33.33
54870;BME280;40756;-37.950;145.008;2022-12-07T05:07:01;100214.84;;;21.25;33.70
54870;BME280;40756;-37.950;145.008;2022-12-07T05:09:30;100221.44;;;21.47;33.63
54870;BME280;40756;-37.950;145.008;2022-12-07T05:11:59;100223.36;;;20.93;33.86
54870;BME280;40756;-37.950;145.008;2022-12-07T05:14:29;100223.80;;;21.62;33.19
54870;BME280;40756;-37.950;145.008;2022-12-07T05:16:58;100223.56;;;21.89;34.05
54870;BME280;40756;-37.950;145.008;2022-12-07T05:19:28;100229.37;;;21.21;32.50
54870;BME280;40756;-37.950;145.008;2022-12-07T05:21:58;100222.29;;;20.55;33.24
54870;BME280;40756;-37.950;145.008;2022-12-07T05:24:28;100219.06;;;21.00;32.95
54870;BME280;40756;-37.950;145.008;2022-12-07T05:26:57;100219.65;;;21.35;33.00
54870;BME280;40756;-37.950;145.008;2022-12-07T05:29:27;100217.51;;;20.86;33.46
54870;BME280;40756;-37.950;145.008;2022-12-07T05:31:57;100225.01;;;20.70;33.53
54870;BME280;40756;-37.950;145.008;2022-12-07T05:34:26;100219.45;;;20.94;33.68
54870;BME280;40756;-37.950;145.008;2022-12-07T05:36:55;100226.75;;;19.88;34.40
54870;BME280;40756;-37.950;145.008;2022-12-07T05:39:25;100226.02;;;19.64;34.37
54870;BME280;40756;-37.950;145.008;2022-12-07T05:41:54;100219.73;;;19.76;34.27
54870;BME280;40756;-37.950;145.008;2022-12-07T05:44:24;100221.44;;;20.92;34.15
54870;BME280;40756;-37.950;145.008;2022-12-07T05:46:53;100216.61;;;20.71;33.70
54870;BME280;40756;-37.950;145.008;2022-12-07T05:49:23;100209.08;;;20.70;33.60
54870;BME280;40756;-37.950;145.008;2022-12-07T05:51:52;100210.24;;;20.43;33.89
54870;BME280;40756;-37.950;145.008;2022-12-07T05:54:22;100220.80;;;20.91;33.40
54870;BME280;40756;-37.950;145.008;2022-12-07T05:56:51;100225.14;;;20.33;33.85
54870;BME280;40756;-37.950;145.008;2022-12-07T05:59:21;100225.48;;;21.05;32.70
54870;BME280;40756;-37.950;145.008;2022-12-07T06:01:50;100217.83;;;20.24;32.85
54870;BME280;40756;-37.950;145.008;2022-12-07T06:04:21;100217.78;;;20.63;32.83
54870;BME280;40756;-37.950;145.008;2022-12-07T06:06:51;100211.26;;;20.71;32.38
54870;BME280;40756;-37.950;145.008;2022-12-07T06:09:21;100212.52;;;21.34;31.97
54870;BME280;40756;-37.950;145.008;2022-12-07T06:11:53;100216.15;;;20.51;31.96
54870;BME280;40756;-37.950;145.008;2022-12-07T06:14:23;100221.39;;;19.76;32.99
54870;BME280;40756;-37.950;145.008;2022-12-07T06:16:52;100222.40;;;19.51;33.82
54870;BME280;40756;-37.950;145.008;2022-12-07T06:19:22;100217.66;;;19.92;33.39
54870;BME280;40756;-37.950;145.008;2022-12-07T06:21:52;100214.31;;;19.94;32.94
54870;BME280;40756;-37.950;145.008;2022-12-07T06:24:22;100210.56;;;20.11;32.85
54870;BME280;40756;-37.950;145.008;2022-12-07T06:26:52;100216.59;;;19.84;33.14
54870;BME280;40756;-37.950;145.008;2022-12-07T06:29:22;100212.15;;;20.11;32.79
54870;BME280;40756;-37.950;145.008;2022-12-07T06:31:52;100205.11;;;20.80;32.16
54870;BME280;40756;-37.950;145.008;2022-12-07T06:34:22;100203.67;;;20.79;31.75
54870;BME280;40756;-37.950;145.008;2022-12-07T06:36:52;100204.15;;;20.02;32.13
54870;BME280;40756;-37.950;145.008;2022-12-07T06:39:24;100202.57;;;20.23;32.49
54870;BME280;40756;-37.950;145.008;2022-12-07T06:41:54;100203.26;;;19.95;33.10
54870;BME280;40756;-37.950;145.008;2022-12-07T06:44:24;100203.05;;;20.01;33.37
54870;BME280;40756;-37.950;145.008;2022-12-07T06:46:53;100200.63;;;19.80;34.04
54870;BME280;40756;-37.950;145.008;2022-12-07T06:49:22;100197.29;;;19.96;33.70
54870;BME280;40756;-37.950;145.008;2022-12-07T06:51:52;100188.22;;;20.47;33.40
54870;BME280;40756;-37.950;145.008;2022-12-07T06:54:22;100186.68;;;20.19;32.41
54870;BME280;40756;-37.950;145.008;2022-12-07T06:56:51;100187.69;;;20.47;32.93
54870;BME280;40756;-37.950;145.008;2022-12-07T06:59:21;100186.61;;;20.18;33.02
54870;BME280;40756;-37.950;145.008;2022-12-07T07:01:50;100185.96;;;19.60;33.46
54870;BME280;40756;-37.950;145.008;2022-12-07T07:04:20;100185.64;;;19.70;33.66
54870;BME280;40756;-37.950;145.008;2022-12-07T07:06:49;100183.59;;;20.13;33.62
54870;BME280;40756;-37.950;145.008;2022-12-07T07:09:24;100188.41;;;19.45;34.31
54870;BME280;40756;-37.950;145.008;2022-12-07T07:11:53;100190.64;;;19.36;34.59
54870;BME280;40756;-37.950;145.008;2022-12-07T07:14:23;100191.52;;;19.19;35.05
54870;BME280;40756;-37.950;145.008;2022-12-07T07:16:53;100194.75;;;19.58;35.20
54870;BME280;40756;-37.950;145.008;2022-12-07T07:19:23;100194.40;;;19.48;35.46
54870;BME280;40756;-37.950;145.008;2022-12-07T07:21:53;100200.34;;;18.87;36.49
54870;BME280;40756;-37.950;145.008;2022-12-07T07:24:23;100199.73;;;19.42;36.20
54870;BME280;40756;-37.950;145.008;2022-12-07T07:26:52;100201.87;;;19.30;36.76
54870;BME280;40756;-37.950;145.008;2022-12-07T07:29:23;100208.76;;;18.98;37.62
54870;BME280;40756;-37.950;145.008;2022-12-07T07:31:52;100209.66;;;19.18;37.08
54870;BME280;40756;-37.950;145.008;2022-12-07T07:34:22;100212.45;;;19.46;37.88
54870;BME280;40756;-37.950;145.008;2022-12-07T07:36:51;100220.66;;;18.50;37.81
54870;BME280;40756;-37.950;145.008;2022-12-07T07:39:21;100224.76;;;18.48;38.27
54870;BME280;40756;-37.950;145.008;2022-12-07T07:41:51;100227.04;;;18.00;38.80
54870;BME280;40756;-37.950;145.008;2022-12-07T07:44:20;100227.94;;;18.08;38.92
54870;BME280;40756;-37.950;145.008;2022-12-07T07:46:50;100230.87;;;18.53;38.76
54870;BME280;40756;-37.950;145.008;2022-12-07T07:49:19;100237.76;;;18.75;38.47
54870;BME280;40756;-37.950;145.008;2022-12-07T07:51:49;100240.42;;;18.65;38.10
54870;BME280;40756;-37.950;145.008;2022-12-07T07:54:19;100238.62;;;18.09;39.17
54870;BME280;40756;-37.950;145.008;2022-12-07T07:56:48;100243.41;;;18.90;38.62
54870;BME280;40756;-37.950;145.008;2022-12-07T07:59:17;100250.13;;;17.91;39.63
54870;BME280;40756;-37.950;145.008;2022-12-07T08:01:47;100258.52;;;17.83;39.63
54870;BME280;40756;-37.950;145.008;2022-12-07T08:04:17;100262.99;;;17.71;40.18
54870;BME280;40756;-37.950;145.008;2022-12-07T08:06:46;100271.08;;;17.04;41.20
54870;BME280;40756;-37.950;145.008;2022-12-07T08:09:16;100276.96;;;16.73;42.22
54870;BME280;40756;-37.950;145.008;2022-12-07T08:11:45;100283.38;;;16.77;43.90
54870;BME280;40756;-37.950;145.008;2022-12-07T08:14:15;100291.85;;;17.03;42.05
54870;BME280;40756;-37.950;145.008;2022-12-07T08:16:44;100297.78;;;16.57;42.21
54870;BME280;40756;-37.950;145.008;2022-12-07T08:19:14;100310.78;;;16.22;43.50
54870;BME280;40756;-37.950;145.008;2022-12-07T08:21:44;100323.50;;;16.48;45.34
54870;BME280;40756;-37.950;145.008;2022-12-07T08:24:13;100320.87;;;14.98;43.96
54870;BME280;40756;-37.950;145.008;2022-12-07T08:26:44;100326.06;;;15.74;42.95
54870;BME280;40756;-37.950;145.008;2022-12-07T08:29:13;100340.72;;;14.91;50.58
54870;BME280;40756;-37.950;145.008;2022-12-07T08:31:44;100354.87;;;14.33;54.69
54870;BME280;40756;-37.950;145.008;2022-12-07T08:34:14;100364.54;;;14.32;56.26
54870;BME280;40756;-37.950;145.008;2022-12-07T08:36:44;100371.36;;;14.31;55.82
54870;BME280;40756;-37.950;145.008;2022-12-07T08:39:13;100376.63;;;14.21;57.64
54870;BME280;40756;-37.950;145.008;2022-12-07T08:41:43;100371.75;;;13.54;58.70
54870;BME280;40756;-37.950;145.008;2022-12-07T08:44:12;100382.06;;;13.70;59.60
54870;BME280;40756;-37.950;145.008;2022-12-07T08:46:46;100381.99;;;13.55;60.46
54870;BME280;40756;-37.950;145.008;2022-12-07T08:49:18;100400.31;;;13.04;62.82
54870;BME280;40756;-37.950;145.008;2022-12-07T08:51:49;100399.33;;;13.31;61.12
54870;BME280;40756;-37.950;145.008;2022-12-07T08:54:19;100405.25;;;13.92;59.00
54870;BME280;40756;-37.950;145.008;2022-12-07T08:56:49;100411.13;;;13.62;59.69
54870;BME280;40756;-37.950;145.008;2022-12-07T08:59:19;100414.14;;;13.79;58.54
54870;BME280;40756;-37.950;145.008;2022-12-07T09:01:49;100422.31;;;13.03;58.04
54870;BME280;40756;-37.950;145.008;2022-12-07T09:04:19;100431.90;;;13.48;57.36
54870;BME280;40756;-37.950;145.008;2022-12-07T09:06:49;100431.35;;;13.05;55.16
54870;BME280;40756;-37.950;145.008;2022-12-07T09:09:18;100428.56;;;13.47;54.82
54870;BME280;40756;-37.950;145.008;2022-12-07T09:11:48;100436.00;;;13.23;55.68
54870;BME280;40756;-37.950;145.008;2022-12-07T09:14:17;100443.42;;;13.09;54.79
54870;BME280;40756;-37.950;145.008;2022-12-07T09:16:47;100441.07;;;13.68;54.84
54870;BME280;40756;-37.950;145.008;2022-12-07T09:19:17;100451.94;;;13.96;53.45
54870;BME280;40756;-37.950;145.008;2022-12-07T09:21:47;100465.23;;;13.40;56.07
54870;BME280;40756;-37.950;145.008;2022-12-07T09:24:16;100476.98;;;12.34;62.41
54870;BME280;40756;-37.950;145.008;2022-12-07T09:26:51;100487.08;;;11.76;61.39
54870;BME280;40756;-37.950;145.008;2022-12-07T09:29:21;100507.04;;;10.98;62.26
54870;BME280;40756;-37.950;145.008;2022-12-07T09:31:51;100519.05;;;10.94;63.52
54870;BME280;40756;-37.950;145.008;2022-12-07T09:34:21;100508.04;;;10.71;65.90
54870;BME280;40756;-37.950;145.008;2022-12-07T09:36:51;100512.42;;;11.10;66.14
54870;BME280;40756;-37.950;145.008;2022-12-07T09:39:20;100506.47;;;10.53;65.89
54870;BME280;40756;-37.950;145.008;2022-12-07T09:41:50;100516.22;;;11.02;65.21
54870;BME280;40756;-37.950;145.008;2022-12-07T09:44:23;100503.33;;;11.49;64.20
54870;BME280;40756;-37.950;145.008;2022-12-07T09:46:53;100527.93;;;10.74;64.86
54870;BME280;40756;-37.950;145.008;2022-12-07T09:49:25;100546.85;;;10.73;65.46
54870;BME280;40756;-37.950;145.008;2022-12-07T09:52:03;100537.32;;;11.37;62.81
54870;BME280;40756;-37.950;145.008;2022-12-07T09:54:48;100543.18;;;11.09;63.37
54870;BME280;40756;-37.950;145.008;2022-12-07T09:57:18;100536.04;;;11.29;64.22
54870;BME280;40756;-37.950;145.008;2022-12-07T09:59:50;100535.17;;;11.28;63.90
54870;BME280;40756;-37.950;145.008;2022-12-07T10:02:28;100544.89;;;11.14;63.61
54870;BME280;40756;-37.950;145.008;2022-12-07T10:05:02;100545.88;;;11.47;63.25
54870;BME280;40756;-37.950;145.008;2022-12-07T10:07:33;100547.18;;;10.99;61.28
54870;BME280;40756;-37.950;145.008;2022-12-07T10:10:05;100556.59;;;10.70;61.34
54870;BME280;40756;-37.950;145.008;2022-12-07T10:12:54;100557.11;;;10.96;60.72
54870;BME280;40756;-37.950;145.008;2022-12-07T10:15:38;100566.33;;;11.13;60.35
54870;BME280;40756;-37.950;145.008;2022-12-07T10:18:20;100576.98;;;12.03;59.80
54870;BME280;40756;-37.950;145.008;2022-12-07T10:20:58;100583.58;;;11.09;59.06
54870;BME280;40756;-37.950;145.008;2022-12-07T10:23:28;100591.53;;;11.37;58.41
54870;BME280;40756;-37.950;145.008;2022-12-07T10:25:58;100598.91;;;11.63;57.92
54870;BME280;40756;-37.950;145.008;2022-12-07T10:28:36;100602.57;;;11.73;58.31
54870;BME280;40756;-37.950;145.008;2022-12-07T10:31:18;100603.02;;;11.83;57.36
54870;BME280;40756;-37.950;145.008;2022-12-07T10:33:54;100599.70;;;12.17;54.12
54870;BME280;40756;-37.950;145.008;2022-12-07T10:36:27;100597.29;;;12.12;54.53
54870;BME280;40756;-37.950;145.008;2022-12-07T10:39:03;100608.40;;;11.85;54.80
54870;BME280;40756;-37.950;145.008;2022-12-07T10:41:33;100616.62;;;11.38;54.90
54870;BME280;40756;-37.950;145.008;2022-12-07T10:44:02;100621.83;;;11.32;56.27
54870;BME280;40756;-37.950;145.008;2022-12-07T10:46:58;100633.55;;;11.23;52.20
54870;BME280;40756;-37.950;145.008;2022-12-07T10:49:59;100637.54;;;11.95;52.65
54870;BME280;40756;-37.950;145.008;2022-12-07T10:52:43;100642.54;;;11.82;52.01
54870;BME280;40756;-37.950;145.008;2022-12-07T10:55:21;100648.35;;;11.80;53.00
54870;BME280;40756;-37.950;145.008;2022-12-07T10:58:07;100647.98;;;11.44;52.15
54870;BME280;40756;-37.950;145.008;2022-12-07T11:00:46;100674.85;;;11.49;52.44
54870;BME280;40756;-37.950;145.008;2022-12-07T11:03:31;100678.89;;;11.52;51.89
54870;BME280;40756;-37.950;145.008;2022-12-07T11:06:18;100664.56;;;11.45;46.88
54870;BME280;40756;-37.950;145.008;2022-12-07T11:09:03;100675.53;;;11.26;44.36
54870;BME280;40756;-37.950;145.008;2022-12-07T11:11:41;100673.20;;;11.13;41.54
54870;BME280;40756;-37.950;145.008;2022-12-07T11:14:19;100675.39;;;11.53;42.27
54870;BME280;40756;-37.950;145.008;2022-12-07T11:16:58;100688.02;;;11.26;45.09
54870;BME280;40756;-37.950;145.008;2022-12-07T11:19:55;100692.15;;;12.19;42.27
54870;BME280;40756;-37.950;145.008;2022-12-07T11:22:36;100707.03;;;11.22;42.54
54870;BME280;40756;-37.950;145.008;2022-12-07T11:25:23;100724.10;;;12.42;42.56
54870;BME280;40756;-37.950;145.008;2022-12-07T11:28:09;100724.39;;;11.79;42.63
54870;BME280;40756;-37.950;145.008;2022-12-07T11:30:50;100727.57;;;11.31;43.65
54870;BME280;40756;-37.950;145.008;2022-12-07T11:33:32;100731.85;;;12.05;43.17
54870;BME280;40756;-37.950;145.008;2022-12-07T11:36:17;100735.22;;;11.15;44.89
54870;BME280;40756;-37.950;145.008;2022-12-07T11:38:55;100741.33;;;11.65;44.20
54870;BME280;40756;-37.950;145.008;2022-12-07T11:41:31;100758.99;;;12.01;44.83
54870;BME280;40756;-37.950;145.008;2022-12-07T11:44:07;100771.68;;;11.13;47.93
54870;BME280;40756;-37.950;145.008;2022-12-07T11:46:47;100773.95;;;11.04;53.38
54870;BME280;40756;-37.950;145.008;2022-12-07T11:49:26;100799.81;;;9.95;52.73
54870;BME280;40756;-37.950;145.008;2022-12-07T11:51:59;100802.87;;;10.18;53.31
54870;BME280;40756;-37.950;145.008;2022-12-07T11:54:34;100799.29;;;10.38;53.15
54870;BME280;40756;-37.950;145.008;2022-12-07T11:57:09;100798.56;;;9.89;54.50
54870;BME280;40756;-37.950;145.008;2022-12-07T11:59:45;100785.45;;;10.28;52.66
54870;BME280;40756;-37.950;145.008;2022-12-07T12:02:20;100784.94;;;11.06;51.42
54870;BME280;40756;-37.950;145.008;2022-12-07T12:04:57;100787.46;;;10.57;51.48
54870;BME280;40756;-37.950;145.008;2022-12-07T12:07:28;100788.31;;;10.98;50.19
54870;BME280;40756;-37.950;145.008;2022-12-07T12:10:02;100795.52;;;10.98;48.61
54870;BME280;40756;-37.950;145.008;2022-12-07T12:12:52;100795.18;;;10.37;50.28
54870;BME280;40756;-37.950;145.008;2022-12-07T12:15:35;100804.92;;;10.54;49.96
54870;BME280;40756;-37.950;145.008;2022-12-07T12:18:20;100796.33;;;10.68;48.02
54870;BME280;40756;-37.950;145.008;2022-12-07T12:20:54;100791.84;;;10.90;48.25
54870;BME280;40756;-37.950;145.008;2022-12-07T12:23:27;100796.80;;;11.20;45.95
54870;BME280;40756;-37.950;145.008;2022-12-07T12:26:01;100798.64;;;10.88;47.20
54870;BME280;40756;-37.950;145.008;2022-12-07T12:28:35;100801.10;;;11.03;46.79
54870;BME280;40756;-37.950;145.008;2022-12-07T12:31:14;100800.89;;;10.83;46.73
54870;BME280;40756;-37.950;145.008;2022-12-07T12:33:46;100804.29;;;10.80;47.47
54870;BME280;40756;-37.950;145.008;2022-12-07T12:36:24;100799.13;;;11.48;47.06
54870;BME280;40756;-37.950;145.008;2022-12-07T12:39:11;100801.84;;;11.15;46.36
54870;BME280;40756;-37.950;145.008;2022-12-07T12:42:19;100803.57;;;10.92;46.77
54870;BME280;40756;-37.950;145.008;2022-12-07T12:45:20;100802.75;;;11.00;46.67
54870;BME280;40756;-37.950;145.008;2022-12-07T12:48:00;100804.40;;;11.02;46.88
54870;BME280;40756;-37.950;145.008;2022-12-07T12:50:31;100798.63;;;10.96;46.39